Time;durP1;ratioP1;P1;durP2;ratioP2;P2;SDS_P1;SDS_P2;PMS_P1;PMS_P2;Temp;Humidity;BMP_temperature;BMP_pressure;BME280_temperature;BME280_humidity;BME280_pressure;Samples;Min_cycle;Max_cycle;Signal;HPM_P1;HPM_P2
2023/04/22 00:02:22;;;;;;;13.07;8.10;;;13.60;83.50;;;;;;5097479;27;20666;-72
2023/04/22 00:05:12;;;;;;;11.32;7.20;;;13.50;84.00;;;;;;5069518;28;20223;-71
2023/04/22 00:08:06;;;;;;;14.30;7.85;;;13.30;84.60;;;;;;5066800;28;20238;-72
2023/04/22 00:10:55;;;;;;;12.73;7.63;;;13.40;84.90;;;;;;5097905;28;20635;-71
2023/04/22 00:13:44;;;;;;;14.68;8.60;;;13.20;85.30;;;;;;5076220;28;20224;-70
2023/04/22 00:16:33;;;;;;;11.00;7.97;;;13.20;85.40;;;;;;5080904;28;20265;-71
2023/04/22 00:19:24;;;;;;;12.10;7.68;;;13.10;86.10;;;;;;5092612;27;20553;-71
2023/04/22 00:22:13;;;;;;;15.68;8.05;;;;;;;;;;5072132;28;20222;-71
2023/04/22 00:25:02;;;;;;;12.18;8.00;;;13.10;85.90;;;;;;5071816;28;20243;-70
2023/04/22 00:27:51;;;;;;;15.00;8.05;;;13.00;87.20;;;;;;5076592;28;20238;-71
2023/04/22 00:30:40;;;;;;;12.45;7.97;;;13.00;87.70;;;;;;5086146;27;21085;-71
2023/04/22 00:33:29;;;;;;;14.35;7.93;;;13.00;87.30;;;;;;5074587;28;20224;-70
2023/04/22 00:36:20;;;;;;;11.20;7.22;;;13.10;87.00;;;;;;5078732;28;20694;-70
2023/04/22 00:39:13;;;;;;;10.68;7.30;;;13.00;87.50;;;;;;5077879;28;20665;-71
2023/04/22 00:42:02;;;;;;;12.00;7.43;;;12.90;87.90;;;;;;5071062;28;20644;-71
2023/04/22 00:44:52;;;;;;;14.65;8.10;;;12.80;88.30;;;;;;5068430;28;20232;-71
2023/04/22 00:47:42;;;;;;;12.90;7.72;;;12.80;89.20;;;;;;5107362;27;20297;-73
2023/04/22 00:50:30;;;;;;;19.40;8.30;;;12.80;88.60;;;;;;5072699;28;20231;-73
2023/04/22 00:53:21;;;;;;;11.95;7.25;;;12.70;89.00;;;;;;5079311;28;20223;-71
2023/04/22 00:56:11;;;;;;;11.65;7.35;;;12.80;89.40;;;;;;5074636;28;20238;-71
2023/04/22 00:59:00;;;;;;;12.43;6.68;;;12.70;89.20;;;;;;5073284;28;20838;-73
2023/04/22 01:01:51;;;;;;;14.95;8.93;;;12.80;89.30;;;;;;5069290;28;20220;-74
2023/04/22 01:04:39;;;;;;;9.35;7.22;;;12.80;89.50;;;;;;5080620;28;20255;-74
2023/04/22 01:07:28;;;;;;;9.82;7.00;;;12.70;89.60;;;;;;5100844;27;20897;-71
2023/04/22 01:10:19;;;;;;;12.70;6.80;;;12.80;89.80;;;;;;5077799;27;20232;-72
2023/04/22 01:13:07;;;;;;;11.55;6.57;;;12.70;90.10;;;;;;5063738;28;20645;-71
2023/04/22 01:15:56;;;;;;;9.50;6.68;;;12.60;90.10;;;;;;5069251;28;20238;-71
2023/04/22 01:18:45;;;;;;;12.15;6.95;;;12.70;90.20;;;;;;5077791;28;20217;-71
2023/04/22 01:21:36;;;;;;;14.90;6.78;;;12.60;90.20;;;;;;5074395;28;20220;-71
2023/04/22 01:24:26;;;;;;;10.38;6.80;;;12.60;90.40;;;;;;5060995;28;20269;-71
2023/04/22 01:27:15;;;;;;;11.52;7.18;;;12.70;90.20;;;;;;5073913;28;20243;-72
2023/04/22 01:30:06;;;;;;;9.75;6.50;;;12.70;90.30;;;;;;5068890;28;20224;-72
2023/04/22 01:32:55;;;;;;;9.82;6.95;;;12.60;90.40;;;;;;5079158;28;20230;-72
2023/04/22 01:35:44;;;;;;;16.23;6.93;;;12.60;90.50;;;;;;5076988;28;20283;-72
2023/04/22 01:38:34;;;;;;;11.98;6.63;;;12.60;90.60;;;;;;5068095;28;20216;-70
2023/04/22 01:41:26;;;;;;;10.43;6.93;;;12.60;90.60;;;;;;5091218;27;20208;-70
2023/04/22 01:44:15;;;;;;;8.68;6.30;;;12.50;90.70;;;;;;5073465;28;20255;-71
2023/04/22 01:47:04;;;;;;;11.10;6.50;;;12.40;90.80;;;;;;5089934;28;20235;-72
2023/04/22 01:49:55;;;;;;;13.30;6.25;;;12.50;90.90;;;;;;5099932;27;20269;-71
2023/04/22 01:52:43;;;;;;;10.75;6.95;;;12.50;90.80;;;;;;5069936;28;20362;-72
2023/04/22 01:55:34;;;;;;;12.32;6.72;;;12.50;90.80;;;;;;5078490;28;20223;-69
2023/04/22 01:58:25;;;;;;;12.88;7.00;;;12.50;91.10;;;;;;5068229;28;20223;-71
2023/04/22 02:01:14;;;;;;;11.52;7.07;;;12.30;91.10;;;;;;5075347;28;20559;-69
2023/04/22 02:04:06;;;;;;;9.35;6.35;;;12.30;91.20;;;;;;5067456;28;20310;-70
2023/04/22 02:06:55;;;;;;;11.68;6.57;;;12.30;91.20;;;;;;5071774;28;20224;-72
2023/04/22 02:09:44;;;;;;;10.75;6.88;;;12.20;91.30;;;;;;5078370;28;20792;-71
2023/04/22 02:12:33;;;;;;;9.60;6.90;;;12.30;91.40;;;;;;5080090;28;20219;-71
2023/04/22 02:15:23;;;;;;;9.00;6.60;;;12.00;91.80;;;;;;5081624;28;20220;-71
2023/04/22 02:18:16;;;;;;;8.93;6.45;;;12.10;91.90;;;;;;5088315;28;20238;-69
2023/04/22 02:21:05;;;;;;;12.15;6.50;;;12.00;91.80;;;;;;5074744;28;20807;-71
2023/04/22 02:23:54;;;;;;;9.07;6.28;;;12.10;91.80;;;;;;5067058;28;20409;-70
2023/04/22 02:26:43;;;;;;;8.98;6.65;;;12.00;92.00;;;;;;5072712;28;20539;-70
2023/04/22 02:29:32;;;;;;;15.13;6.80;;;12.00;91.90;;;;;;5076120;28;20224;-71
2023/04/22 02:32:22;;;;;;;11.93;6.65;;;12.00;92.10;;;;;;5077077;28;20215;-70
2023/04/22 02:35:11;;;;;;;9.65;6.53;;;12.00;92.40;;;;;;5075396;28;20224;-70
2023/04/22 02:38:00;;;;;;;12.52;6.88;;;12.10;92.30;;;;;;5074555;28;20234;-70
2023/04/22 02:40:48;;;;;;;9.45;6.70;;;12.10;92.10;;;;;;5070547;28;20224;-71
2023/04/22 02:43:38;;;;;;;11.65;7.03;;;12.20;92.20;;;;;;5069862;28;20596;-73
2023/04/22 02:46:27;;;;;;;12.93;6.93;;;12.10;92.20;;;;;;5065865;28;20235;-70
2023/04/22 02:49:21;;;;;;;12.27;7.18;;;12.20;92.30;;;;;;5072310;28;20924;-71
2023/04/22 02:52:11;;;;;;;10.32;6.90;;;12.00;92.20;;;;;;5069519;28;20279;-71
2023/04/22 02:54:59;;;;;;;10.57;7.28;;;12.00;92.40;;;;;;5071106;28;20632;-71
2023/04/22 02:57:48;;;;;;;13.43;7.20;;;12.00;92.50;;;;;;5080164;28;20227;-71
2023/04/22 03:00:37;;;;;;;9.85;6.95;;;12.00;92.60;;;;;;5073621;28;20232;-71
2023/04/22 03:03:26;;;;;;;10.40;6.95;;;12.20;92.50;;;;;;5068485;28;20222;-71
2023/04/22 03:06:17;;;;;;;12.43;7.40;;;12.10;92.40;;;;;;5069459;28;20228;-70
2023/04/22 03:09:10;;;;;;;9.50;6.82;;;12.00;92.60;;;;;;5072826;28;20223;-71
2023/04/22 03:11:59;;;;;;;12.73;7.05;;;11.90;92.80;;;;;;5072223;28;21064;-70
2023/04/22 03:14:48;;;;;;;10.90;6.93;;;12.00;92.80;;;;;;5093750;27;20228;-71
2023/04/22 03:17:37;;;;;;;9.75;6.75;;;11.90;92.90;;;;;;5078740;28;20239;-72
2023/04/22 03:20:30;;;;;;;11.65;6.75;;;12.00;92.90;;;;;;5072623;27;20995;-71
2023/04/22 03:23:20;;;;;;;12.90;7.22;;;12.10;92.80;;;;;;5076582;28;20215;-71
2023/04/22 03:26:09;;;;;;;10.50;6.82;;;12.10;92.90;;;;;;5073349;28;20301;-70
2023/04/22 03:28:59;;;;;;;11.32;6.75;;;12.00;92.90;;;;;;5071095;28;20234;-69
2023/04/22 03:31:48;;;;;;;10.55;6.60;;;11.90;92.90;;;;;;5098615;27;20255;-70
2023/04/22 03:34:36;;;;;;;13.63;7.72;;;12.00;92.90;;;;;;5097314;27;20243;-68
2023/04/22 03:37:28;;;;;;;12.05;7.38;;;12.10;92.70;;;;;;5091939;27;20227;-70
2023/04/22 03:40:19;;;;;;;8.93;6.43;;;12.00;92.90;;;;;;5067954;28;20228;-70
2023/04/22 03:43:08;;;;;;;11.02;7.10;;;11.90;92.90;;;;;;5066361;28;20699;-71
2023/04/22 03:45:59;;;;;;;11.43;7.40;;;11.80;93.20;;;;;;5072863;28;20647;-69
2023/04/22 03:48:50;;;;;;;9.82;7.10;;;11.90;93.20;;;;;;5070691;28;20231;-70
2023/04/22 03:51:50;;;;;;;13.50;7.70;;;11.90;93.00;;;;;;5072878;28;20227;-71
2023/04/22 03:54:43;;;;;;;13.38;8.00;;;11.90;93.20;;;;;;5077904;28;20308;-72
2023/04/22 03:57:34;;;;;;;8.93;6.60;;;12.00;93.30;;;;;;5070718;28;20227;-72
2023/04/22 04:00:23;;;;;;;14.63;7.15;;;12.00;93.10;;;;;;5072376;28;21003;-71
2023/04/22 04:03:25;;;;;;;10.18;6.38;;;12.10;93.20;;;;;;5074267;28;20892;-71
2023/04/22 04:06:18;;;;;;;11.02;6.88;;;12.20;93.10;;;;;;5078104;28;20230;-71
2023/04/22 04:09:07;;;;;;;11.00;6.68;;;12.10;93.30;;;;;;5085338;28;21770;-71
2023/04/22 04:11:56;;;;;;;11.27;6.47;;;12.00;93.40;;;;;;5077212;28;20754;-70
2023/04/22 04:14:51;;;;;;;10.63;6.13;;;12.10;93.80;;;;;;5089051;28;20345;-71
2023/04/22 04:17:41;;;;;;;11.65;6.88;;;12.20;93.10;;;;;;5096147;28;20312;-72
2023/04/22 04:20:30;;;;;;;11.10;6.43;;;12.10;93.10;;;;;;5084515;28;20560;-71
2023/04/22 04:23:19;;;;;;;12.95;6.75;;;12.10;93.10;;;;;;5102845;28;20299;-71
2023/04/22 04:26:09;;;;;;;15.73;6.53;;;12.10;93.30;;;;;;5075303;28;20247;-71
2023/04/22 04:29:02;;;;;;;10.00;6.43;;;12.30;93.10;;;;;;5067735;28;20220;-70
2023/04/22 04:31:52;;;;;;;13.25;6.20;;;12.30;92.80;;;;;;5074867;28;20227;-70
2023/04/22 04:34:42;;;;;;;11.48;6.22;;;12.20;92.80;;;;;;5079884;28;20232;-70
2023/04/22 04:37:32;;;;;;;13.50;6.10;;;12.10;92.90;;;;;;5069935;28;20228;-72
2023/04/22 04:40:28;;;;;;;10.07;5.90;;;12.10;93.10;;;;;;5076140;28;20216;-70
2023/04/22 04:43:30;;;;;;;8.85;6.07;;;12.20;93.00;;;;;;5068903;28;20247;-69
2023/04/22 04:46:31;;;;;;;10.18;6.50;;;12.00;93.20;;;;;;5080943;28;20231;-70
2023/04/22 04:49:21;;;;;;;11.57;6.60;;;11.90;93.70;;;;;;5072281;28;20349;-70
2023/04/22 04:52:16;;;;;;;9.13;6.00;;;12.20;93.30;;;;;;5081803;28;20234;-72
2023/04/22 04:55:05;;;;;;;8.45;6.10;;;12.30;93.10;;;;;;5077640;28;20223;-70
2023/04/22 04:57:55;;;;;;;14.95;6.57;;;12.30;93.00;;;;;;5079921;28;20730;-73
2023/04/22 05:00:44;;;;;;;12.70;6.13;;;12.40;92.90;;;;;;5070475;28;20659;-73
2023/04/22 05:03:33;;;;;;;10.38;5.93;;;12.40;92.80;;;;;;5072700;28;20342;-73
2023/04/22 05:06:24;;;;;;;12.57;6.65;;;12.50;93.00;;;;;;5075714;28;20226;-71
2023/04/22 05:09:18;;;;;;;8.68;6.25;;;12.60;92.90;;;;;;5099038;27;20369;-71
2023/04/22 05:12:09;;;;;;;10.50;6.38;;;12.60;93.00;;;;;;5068841;28;20225;-70
2023/04/22 05:14:58;;;;;;;9.80;6.50;;;12.80;92.90;;;;;;5101115;27;20224;-71
2023/04/22 05:17:48;;;;;;;9.93;6.75;;;13.00;92.60;;;;;;5076519;28;20307;-71
2023/04/22 05:20:37;;;;;;;8.18;6.32;;;13.20;92.40;;;;;;5073622;28;20240;-72
2023/04/22 05:23:28;;;;;;;13.23;6.97;;;13.40;92.30;;;;;;5076624;28;20216;-71
2023/04/22 05:26:19;;;;;;;12.60;6.40;;;13.50;92.30;;;;;;5075922;28;20219;-70
2023/04/22 05:29:10;;;;;;;13.45;6.78;;;13.60;92.00;;;;;;5075569;28;20226;-72
2023/04/22 05:31:59;;;;;;;10.60;5.60;;;13.80;91.60;;;;;;5075898;28;20243;-72
2023/04/22 05:34:49;;;;;;;10.57;6.85;;;15.00;90.90;;;;;;5080287;28;20770;-72
2023/04/22 05:37:38;;;;;;;9.75;6.28;;;16.30;88.30;;;;;;5072026;28;20564;-72
2023/04/22 05:40:29;;;;;;;9.57;6.55;;;16.70;85.20;;;;;;5076892;28;20219;-72
2023/04/22 05:43:19;;;;;;;11.85;6.20;;;17.20;83.50;;;;;;5078517;28;20215;-71
2023/04/22 05:46:16;;;;;;;10.50;6.53;;;17.10;83.00;;;;;;5072203;28;20307;-70
2023/04/22 05:49:06;;;;;;;16.00;6.72;;;16.00;84.10;;;;;;5072860;28;20658;-69
2023/04/22 05:52:13;;;;;;;12.63;6.63;;;15.20;86.40;;;;;;5068675;28;20307;-70
2023/04/22 05:55:18;;;;;;;14.30;6.10;;;15.00;89.60;;;;;;5101521;27;20264;-70
2023/04/22 05:58:09;;;;;;;12.27;7.10;;;14.60;89.20;;;;;;5074401;28;20238;-72
2023/04/22 06:01:05;;;;;;;11.20;6.53;;;14.90;89.90;;;;;;5073859;28;20723;-72
2023/04/22 06:04:15;;;;;;;15.40;6.07;;;14.90;89.60;;;;;;5073769;28;20258;-72
2023/04/22 06:07:05;;;;;;;14.07;6.45;;;15.10;89.60;;;;;;5085918;28;20223;-73
2023/04/22 06:09:54;;;;;;;10.23;5.93;;;15.10;89.00;;;;;;5064181;28;20314;-73
2023/04/22 06:12:56;;;;;;;12.05;6.38;;;15.20;89.40;;;;;;5072280;28;20216;-73
2023/04/22 06:15:47;;;;;;;11.55;6.15;;;15.20;88.80;;;;;;5080857;28;20877;-71
2023/04/22 06:18:36;;;;;;;13.30;6.57;;;14.80;89.50;;;;;;5066226;28;20624;-70
2023/04/22 06:21:35;;;;;;;11.60;6.55;;;14.80;90.00;;;;;;5063996;28;20545;-70
2023/04/22 06:24:25;;;;;;;12.88;6.45;;;15.10;90.00;;;;;;5073972;28;20231;-70
2023/04/22 06:27:15;;;;;;;12.82;6.13;;;15.00;89.40;;;;;;5062875;28;20224;-70
2023/04/22 06:30:05;;;;;;;11.40;7.28;;;15.20;90.10;;;;;;5094259;27;20227;-72
2023/04/22 06:32:58;;;;;;;9.85;6.22;;;15.20;90.20;;;;;;5068932;28;20745;-72
2023/04/22 06:35:47;;;;;;;10.85;6.28;;;15.90;89.40;;;;;;5065293;28;20227;-69
2023/04/22 06:38:36;;;;;;;12.55;5.88;;;18.00;84.90;;;;;;5073861;28;20911;-70
2023/04/22 06:41:54;;;;;;;11.75;6.25;;;17.50;83.70;;;;;;5061119;28;20343;-70
2023/04/22 06:45:18;;;;;;;10.43;6.70;;;17.20;83.00;;;;;;5008828;28;20217;-71
2023/04/22 06:48:26;;;;;;;9.57;5.95;;;17.20;83.10;;;;;;5071692;28;20226;-69
2023/04/22 06:51:33;;;;;;;10.90;6.00;;;17.20;83.10;;;;;;5074071;28;20223;-71
2023/04/22 06:54:23;;;;;;;8.73;5.85;;;17.60;81.90;;;;;;5073347;28;21065;-72
2023/04/22 06:57:11;;;;;;;8.13;5.45;;;18.10;80.70;;;;;;5072024;28;20254;-71
2023/04/22 07:00:00;;;;;;;8.27;5.40;;;18.60;79.30;;;;;;5063589;28;21021;-70
2023/04/22 07:02:52;;;;;;;10.38;5.47;;;19.00;78.80;;;;;;5065992;28;20239;-71
2023/04/22 07:05:42;;;;;;;7.72;5.20;;;19.30;77.50;;;;;;5064304;28;20326;-71
2023/04/22 07:08:34;;;;;;;11.45;5.95;;;19.30;76.90;;;;;;5068685;28;20220;-70
2023/04/22 07:11:23;;;;;;;9.85;5.72;;;19.20;77.00;;;;;;5096235;27;20315;-71
2023/04/22 07:14:22;;;;;;;12.05;5.43;;;19.70;76.80;;;;;;5068130;28;20252;-71
2023/04/22 07:17:11;;;;;;;9.20;5.60;;;20.10;73.50;;;;;;5067426;28;20222;-71
2023/04/22 07:19:59;;;;;;;10.13;5.50;;;20.20;73.80;;;;;;5063459;28;20238;-71
2023/04/22 07:22:52;;;;;;;11.73;5.90;;;20.20;74.40;;;;;;5067290;28;20250;-74
2023/04/22 07:25:40;;;;;;;12.32;5.90;;;20.80;74.90;;;;;;5065309;28;20227;-72
2023/04/22 07:28:29;;;;;;;11.95;7.13;;;21.00;72.10;;;;;;5054069;28;20464;-72
2023/04/22 07:31:18;;;;;;;11.05;5.18;;;21.00;70.00;;;;;;5073435;28;20732;-73
2023/04/22 07:34:09;;;;;;;10.32;5.25;;;21.00;70.00;;;;;;5065963;28;20250;-72
2023/04/22 07:36:58;;;;;;;9.15;5.85;;;21.20;70.90;;;;;;5069422;28;20694;-72
2023/04/22 07:39:48;;;;;;;10.48;5.75;;;21.20;70.10;;;;;;5073958;28;20700;-72
2023/04/22 07:42:37;;;;;;;8.50;5.30;;;21.40;68.90;;;;;;5087079;28;20259;-72
2023/04/22 07:45:26;;;;;;;7.05;4.82;;;21.70;68.20;;;;;;5074664;28;20231;-70
2023/04/22 07:48:15;;;;;;;6.13;5.07;;;21.30;69.00;;;;;;5071767;28;20227;-72
2023/04/22 07:51:05;;;;;;;9.60;5.72;;;21.70;68.80;;;;;;5069403;28;20611;-72
2023/04/22 07:53:53;;;;;;;7.32;5.25;;;21.70;66.10;;;;;;5099492;28;20230;-72
2023/04/22 07:56:43;;;;;;;7.68;5.35;;;21.80;66.30;;;;;;5071290;28;20885;-71
2023/04/22 07:59:32;;;;;;;10.98;5.10;;;21.80;65.70;;;;;;5070715;28;20220;-69
2023/04/22 08:02:21;;;;;;;8.25;5.38;;;21.60;65.90;;;;;;5078606;28;21075;-72
2023/04/22 08:05:11;;;;;;;14.82;5.18;;;22.10;66.50;;;;;;5099355;28;20219;-71
2023/04/22 08:07:59;;;;;;;8.55;5.03;;;22.70;65.10;;;;;;5071107;28;20246;-71
2023/04/22 08:10:49;;;;;;;8.23;5.47;;;23.20;62.60;;;;;;5072372;28;20599;-73
2023/04/22 08:13:39;;;;;;;8.65;4.97;;;23.60;60.90;;;;;;5066290;28;20235;-71
2023/04/22 08:16:28;;;;;;;12.15;7.13;;;23.50;60.50;;;;;;5081484;28;20212;-70
2023/04/22 08:19:18;;;;;;;10.23;5.72;;;23.50;59.00;;;;;;5066527;28;20216;-71
2023/04/22 08:22:07;;;;;;;10.90;5.68;;;23.60;59.70;;;;;;5073596;28;20690;-71
2023/04/22 08:25:00;;;;;;;8.18;5.40;;;23.60;58.70;;;;;;5063087;28;20921;-70
2023/04/22 08:27:49;;;;;;;8.82;5.70;;;23.90;58.70;;;;;;5069010;28;20228;-71
2023/04/22 08:30:41;;;;;;;10.93;5.70;;;23.80;58.10;;;;;;5073120;28;20376;-71
2023/04/22 08:33:30;;;;;;;10.57;5.30;;;24.30;57.90;;;;;;5098718;28;20737;-71
2023/04/22 08:36:21;;;;;;;9.65;5.38;;;;;;;;;;5070701;28;20230;-71
2023/04/22 08:39:11;;;;;;;9.43;5.50;;;24.70;58.00;;;;;;5074077;28;20220;-72
2023/04/22 08:42:01;;;;;;;10.40;4.95;;;24.80;58.00;;;;;;5073273;28;20649;-72
2023/04/22 08:44:53;;;;;;;10.40;4.57;;;24.80;57.20;;;;;;5077483;28;20223;-70
2023/04/22 08:47:49;;;;;;;8.68;5.57;;;25.00;55.80;;;;;;5070022;28;20532;-69
2023/04/22 08:50:39;;;;;;;7.70;4.88;;;25.30;55.40;;;;;;5072880;28;20364;-70
2023/04/22 08:53:28;;;;;;;8.30;4.72;;;25.50;55.30;;;;;;5067362;28;20232;-71
2023/04/22 08:56:17;;;;;;;6.22;5.10;;;25.90;53.60;;;;;;5087176;28;20260;-71
2023/04/22 08:59:06;;;;;;;7.80;4.82;;;25.00;54.40;;;;;;5070742;28;20230;-70
2023/04/22 09:01:57;;;;;;;6.70;4.72;;;25.00;55.00;;;;;;5069050;28;20237;-72
2023/04/22 09:04:53;;;;;;;6.80;4.72;;;25.10;55.00;;;;;;5069673;28;20236;-71
2023/04/22 09:07:42;;;;;;;8.15;3.92;;;25.10;53.50;;;;;;5074317;28;20227;-72
2023/04/22 09:10:31;;;;;;;4.53;3.78;;;24.30;53.80;;;;;;5072844;28;20723;-71
2023/04/22 09:13:23;;;;;;;5.82;4.10;;;24.80;54.40;;;;;;5075382;28;20326;-71
2023/04/22 09:16:11;;;;;;;4.65;3.95;;;24.90;53.40;;;;;;5071383;28;20953;-71
2023/04/22 09:19:01;;;;;;;5.95;3.65;;;25.30;53.90;;;;;;5074716;28;20224;-71
2023/04/22 09:21:51;;;;;;;7.57;4.28;;;25.50;52.80;;;;;;5066574;28;20220;-71
2023/04/22 09:24:44;;;;;;;6.63;3.90;;;25.50;52.60;;;;;;5080596;28;20227;-72
2023/04/22 09:27:36;;;;;;;5.97;3.80;;;25.50;52.10;;;;;;5079814;28;20223;-72
2023/04/22 09:30:26;;;;;;;4.80;3.78;;;26.30;52.00;;;;;;5096763;27;20262;-71
2023/04/22 09:33:16;;;;;;;5.25;4.15;;;26.70;51.70;;;;;;5075502;28;20305;-71
2023/04/22 09:36:09;;;;;;;5.78;3.72;;;27.10;51.10;;;;;;5067003;28;20251;-71
2023/04/22 09:39:03;;;;;;;4.93;4.03;;;26.90;49.90;;;;;;5076363;28;20235;-71
2023/04/22 09:41:55;;;;;;;7.63;4.55;;;27.10;49.60;;;;;;5071121;28;20314;-71
2023/04/22 09:44:45;;;;;;;7.78;4.10;;;27.40;49.80;;;;;;5096191;28;20316;-71
2023/04/22 09:47:36;;;;;;;7.85;4.13;;;28.30;48.60;;;;;;5081223;28;20223;-70
2023/04/22 09:50:27;;;;;;;6.90;3.70;;;29.00;48.30;;;;;;5074771;28;20264;-71
2023/04/22 09:53:18;;;;;;;4.88;3.90;;;28.70;47.20;;;;;;5086297;28;20218;-70
2023/04/22 09:56:08;;;;;;;9.25;3.45;;;29.20;47.40;;;;;;5086084;28;20227;-70
2023/04/22 09:58:57;;;;;;;5.30;3.65;;;30.20;47.50;;;;;;5071333;28;20219;-71
2023/04/22 10:01:46;;;;;;;4.95;4.10;;;30.80;45.90;;;;;;5077651;28;20578;-70
2023/04/22 10:04:35;;;;;;;8.32;3.83;;;30.90;45.20;;;;;;5079649;28;20357;-71
2023/04/22 10:07:27;;;;;;;5.47;3.35;;;30.70;45.40;;;;;;5081910;28;20683;-71
2023/04/22 10:10:16;;;;;;;8.90;4.00;;;30.50;45.90;;;;;;5084079;28;20215;-70
2023/04/22 10:13:07;;;;;;;7.38;3.60;;;30.20;45.10;;;;;;5071912;28;20276;-71
2023/04/22 10:15:57;;;;;;;6.88;4.05;;;30.70;45.40;;;;;;5072943;28;20760;-71
2023/04/22 10:18:47;;;;;;;6.38;3.30;;;30.00;43.80;;;;;;5082279;28;20227;-71
2023/04/22 10:21:37;;;;;;;4.90;3.60;;;30.00;44.60;;;;;;5080922;28;20223;-70
2023/04/22 10:24:28;;;;;;;3.65;3.35;;;30.60;44.40;;;;;;5119324;27;20222;-71
2023/04/22 10:27:21;;;;;;;7.28;3.47;;;30.70;44.00;;;;;;5075194;28;20239;-71
2023/04/22 10:30:27;;;;;;;6.10;3.60;;;30.80;43.60;;;;;;5076250;28;20231;-70
2023/04/22 10:33:38;;;;;;;11.93;3.70;;;31.40;43.90;;;;;;5072494;28;20545;-70
2023/04/22 10:36:27;;;;;;;5.20;3.50;;;31.10;42.60;;;;;;5090395;28;20214;-71
2023/04/22 10:39:17;;;;;;;6.10;3.72;;;31.40;42.40;;;;;;5081085;28;20242;-70
2023/04/22 10:42:11;;;;;;;11.27;3.40;;;32.20;42.20;;;;;;5078314;28;20231;-71
2023/04/22 10:45:02;;;;;;;4.82;3.90;;;33.10;41.40;;;;;;5072894;28;20781;-70
2023/04/22 10:47:53;;;;;;;5.35;3.70;;;32.30;42.20;;;;;;5081792;28;20223;-71
2023/04/22 10:50:42;;;;;;;8.07;3.70;;;32.70;42.00;;;;;;5072310;28;20266;-71
2023/04/22 10:53:42;;;;;;;5.70;3.60;;;31.80;41.40;;;;;;5085543;28;20230;-69
2023/04/22 10:56:31;;;;;;;4.55;3.70;;;32.40;42.00;;;;;;5081749;28;20586;-71
2023/04/22 10:59:20;;;;;;;6.35;3.30;;;32.30;41.60;;;;;;5063211;28;20941;-72
2023/04/22 11:02:11;;;;;;;4.45;3.58;;;33.00;41.50;;;;;;5107557;27;20245;-70
2023/04/22 11:05:23;;;;;;;5.57;3.53;;;32.90;40.50;;;;;;5077982;28;20954;-71
2023/04/22 11:08:19;;;;;;;6.25;4.07;;;33.40;40.70;;;;;;5075813;28;20222;-73
2023/04/22 11:11:12;;;;;;;6.82;3.92;;;34.10;39.70;;;;;;5078688;28;20788;-71
2023/04/22 11:14:02;;;;;;;9.63;3.70;;;32.80;40.10;;;;;;5076474;28;20230;-71
2023/04/22 11:16:54;;;;;;;5.15;3.75;;;30.40;42.90;;;;;;5065786;28;20215;-71
2023/04/22 11:19:43;;;;;;;5.65;3.70;;;31.80;42.50;;;;;;5067003;28;20238;-72
2023/04/22 11:22:40;;;;;;;6.20;4.03;;;33.00;41.30;;;;;;5072110;28;20226;-72
2023/04/22 11:25:29;;;;;;;6.38;5.45;;;33.70;41.20;;;;;;5073718;28;20333;-72
2023/04/22 11:28:21;;;;;;;6.97;4.20;;;34.90;39.30;;;;;;5072162;28;20238;-70
2023/04/22 11:31:13;;;;;;;6.65;4.15;;;35.90;38.60;;;;;;5079210;28;20272;-71
2023/04/22 11:34:02;;;;;;;9.25;3.85;;;;;;;;;;5077535;28;21095;-72
2023/04/22 11:36:52;;;;;;;8.55;3.72;;;37.30;37.40;;;;;;5080720;28;20233;-72
2023/04/22 11:39:42;;;;;;;4.60;3.53;;;35.50;36.90;;;;;;5076164;28;21055;-71
2023/04/22 11:42:52;;;;;;;8.32;4.20;;;33.90;38.40;;;;;;5079727;28;20230;-72
2023/04/22 11:45:41;;;;;;;5.63;3.70;;;31.90;38.70;;;;;;5105568;27;20605;-72
2023/04/22 11:48:30;;;;;;;7.32;3.50;;;31.80;39.40;;;;;;5080747;28;20223;-70
2023/04/22 11:51:23;;;;;;;10.20;3.70;;;32.00;39.00;;;;;;5074825;28;20324;-70
2023/04/22 11:54:12;;;;;;;5.25;3.75;;;31.30;40.20;;;;;;5059684;28;20216;-72
2023/04/22 11:57:04;;;;;;;7.68;4.00;;;30.00;40.60;;;;;;5076717;28;20245;-71
2023/04/22 11:59:59;;;;;;;8.75;4.10;;;28.50;42.70;;;;;;5074680;28;20225;-72
2023/04/22 12:02:58;;;;;;;7.68;4.05;;;27.60;43.40;;;;;;5081338;28;20226;-70
2023/04/22 12:05:53;;;;;;;5.80;4.18;;;28.50;44.20;;;;;;5080597;28;20223;-71
2023/04/22 12:08:43;;;;;;;7.05;3.25;;;26.00;44.70;;;;;;5066456;28;20297;-70
2023/04/22 12:11:32;;;;;;;6.93;3.60;;;;;;;;;;5080413;28;20223;-70
2023/04/22 12:14:31;;;;;;;5.70;3.15;;;25.50;45.70;;;;;;5079858;28;20241;-71
2023/04/22 12:17:23;;;;;;;7.03;3.63;;;24.20;46.60;;;;;;5080411;28;20754;-70
2023/04/22 12:20:13;;;;;;;5.00;3.50;;;24.10;48.90;;;;;;5081939;28;20413;-70
2023/04/22 12:23:03;;;;;;;6.05;3.63;;;24.20;48.40;;;;;;5066935;28;20748;-69
2023/04/22 12:25:52;;;;;;;4.78;4.07;;;24.30;48.30;;;;;;5075895;28;20226;-71
2023/04/22 12:28:45;;;;;;;5.35;3.45;;;24.20;48.60;;;;;;5076767;28;20227;-71
2023/04/22 12:31:37;;;;;;;6.22;3.20;;;24.30;48.90;;;;;;5082628;28;20222;-72
2023/04/22 12:34:25;;;;;;;7.07;4.28;;;24.50;48.80;;;;;;5082050;28;20283;-70
2023/04/22 12:37:15;;;;;;;4.18;3.40;;;24.10;48.50;;;;;;5078868;28;20219;-73
2023/04/22 12:40:05;;;;;;;7.65;4.00;;;24.00;50.60;;;;;;5076385;28;20293;-68
2023/04/22 12:42:54;;;;;;;6.50;4.03;;;23.80;48.80;;;;;;5084336;28;20231;-71
2023/04/22 12:45:42;;;;;;;6.07;3.80;;;23.50;49.90;;;;;;5081384;28;21029;-71
2023/04/22 12:48:34;;;;;;;5.80;4.13;;;23.50;50.60;;;;;;5073363;28;20219;-70
2023/04/22 12:51:23;;;;;;;7.82;3.38;;;23.30;50.50;;;;;;5083727;28;20482;-71
2023/04/22 12:54:12;;;;;;;7.78;3.80;;;22.90;50.50;;;;;;5076921;28;20239;-70
2023/04/22 12:57:01;;;;;;;4.65;3.30;;;23.00;51.20;;;;;;5071272;28;20231;-72
2023/04/22 12:59:50;;;;;;;4.53;3.28;;;22.80;51.40;;;;;;5084085;28;20223;-71
2023/04/22 13:02:39;;;;;;;5.72;3.85;;;22.70;52.20;;;;;;5076227;28;20715;-71
2023/04/22 13:05:30;;;;;;;4.13;3.70;;;22.20;51.90;;;;;;5082381;28;20220;-71
2023/04/22 13:08:18;;;;;;;4.55;3.60;;;22.00;52.00;;;;;;5084157;28;20819;-70
2023/04/22 13:11:07;;;;;;;4.13;3.53;;;22.40;51.80;;;;;;5073971;28;20224;-69
2023/04/22 13:13:56;;;;;;;6.32;3.80;;;22.30;51.90;;;;;;5085678;28;20215;-70
2023/04/22 13:16:45;;;;;;;4.57;3.70;;;22.30;51.70;;;;;;5075033;28;20223;-70
2023/04/22 13:19:34;;;;;;;5.07;3.67;;;22.40;51.60;;;;;;5077557;28;20575;-72
2023/04/22 13:22:24;;;;;;;6.18;4.40;;;22.30;52.80;;;;;;5071347;28;20579;-71
2023/04/22 13:25:13;;;;;;;9.07;4.22;;;22.40;51.80;;;;;;5065472;28;20227;-70
2023/04/22 13:28:02;;;;;;;7.65;3.88;;;22.10;51.70;;;;;;5080051;28;20215;-70
2023/04/22 13:30:52;;;;;;;4.70;3.55;;;21.80;52.50;;;;;;5074196;28;20285;-71
2023/04/22 13:33:42;;;;;;;7.47;4.20;;;22.10;53.00;;;;;;5081591;28;20262;-72
2023/04/22 13:36:31;;;;;;;7.72;3.72;;;22.00;52.10;;;;;;5073887;28;20255;-70
2023/04/22 13:39:22;;;;;;;6.95;3.47;;;21.90;52.60;;;;;;5085271;28;20789;-71
2023/04/22 13:42:11;;;;;;;6.15;4.40;;;21.80;53.00;;;;;;5084651;28;20258;-71
2023/04/22 13:45:00;;;;;;;5.45;4.05;;;22.10;52.70;;;;;;5077570;28;20232;-72
2023/04/22 13:47:48;;;;;;;7.05;4.30;;;21.70;52.80;;;;;;5080558;28;20683;-71
2023/04/22 13:50:41;;;;;;;7.25;4.13;;;22.00;52.60;;;;;;5083212;28;20230;-69
2023/04/22 13:53:31;;;;;;;7.32;4.00;;;22.20;53.00;;;;;;5067581;28;20219;-72
2023/04/22 13:56:23;;;;;;;11.18;4.05;;;22.20;53.40;;;;;;5081756;28;20946;-71
2023/04/22 13:59:12;;;;;;;6.07;4.30;;;22.10;54.60;;;;;;5107642;27;20216;-71
2023/04/22 14:02:01;;;;;;;6.22;4.53;;;22.20;54.40;;;;;;5082876;28;20239;-71
2023/04/22 14:04:49;;;;;;;6.15;4.30;;;22.10;53.40;;;;;;5072738;28;20235;-72
2023/04/22 14:07:41;;;;;;;6.45;4.45;;;22.00;54.40;;;;;;5079622;28;20227;-71
2023/04/22 14:10:30;;;;;;;8.63;4.10;;;22.10;54.60;;;;;;5088978;28;20211;-70
2023/04/22 14:13:24;;;;;;;5.50;4.45;;;21.90;54.70;;;;;;5076126;28;20944;-71
2023/04/22 14:16:13;;;;;;;7.95;4.30;;;21.80;54.70;;;;;;5070978;28;20357;-71
2023/04/22 14:19:03;;;;;;;7.35;4.10;;;;;;;;;;5083252;28;20243;-72
2023/04/22 14:21:53;;;;;;;6.32;4.20;;;21.70;72.90;;;;;;5057649;28;20252;-71
2023/04/22 14:24:42;;;;;;;8.90;4.15;;;21.90;76.90;;;;;;5063149;28;21937;-70
2023/04/22 14:27:31;;;;;;;7.53;4.25;;;;;;;;;;5072200;28;20237;-69
2023/04/22 14:30:22;;;;;;;9.32;4.38;;;;;;;;;;5072201;28;20297;-68
2023/04/22 14:33:12;;;;;;;8.13;4.78;;;;;;;;;;5069180;28;20224;-70
2023/04/22 14:36:01;;;;;;;6.18;3.95;;;;;;;;;;5074123;28;20411;-70
2023/04/22 14:38:53;;;;;;;8.45;4.15;;;;;;;;;;5068747;28;20703;-70
2023/04/22 14:41:42;;;;;;;7.65;4.10;;;;;;;;;;5069650;28;20811;-71
2023/04/22 14:44:31;;;;;;;9.30;3.75;;;;;;;;;;5066747;28;20231;-70
2023/04/22 14:47:22;;;;;;;8.00;4.03;;;;;;;;;;5065037;28;20327;-69
2023/04/22 14:50:11;;;;;;;10.52;4.30;;;;;;;;;;5065273;28;20261;-70
2023/04/22 14:53:01;;;;;;;9.65;4.00;;;;;;;;;;5070892;28;20694;-70